Time;durP1;ratioP1;P1;durP2;ratioP2;P2;SDS_P1;SDS_P2;PMS_P1;PMS_P2;Temp;Humidity;BMP_temperature;BMP_pressure;BME280_temperature;BME280_humidity;BME280_pressure;Samples;Min_cycle;Max_cycle;Signal;HPM_P1;HPM_P2
2023/07/27 00:00:30;;;;;;;4.30;3.17;;;16.50;99.90;;;;;;5060547;28;20190;-68
2023/07/27 00:02:55;;;;;;;3.23;2.93;;;16.60;99.90;;;;;;5061189;28;20770;-68
2023/07/27 00:05:21;;;;;;;3.20;2.90;;;16.60;99.90;;;;;;5063674;28;20642;-68
2023/07/27 00:07:46;;;;;;;3.77;3.33;;;16.60;99.90;;;;;;5062346;28;20203;-68
2023/07/27 00:10:12;;;;;;;3.63;2.80;;;16.70;99.90;;;;;;5065924;28;20674;-70
2023/07/27 00:12:37;;;;;;;2.83;2.60;;;16.70;99.90;;;;;;5062944;28;20166;-68
2023/07/27 00:15:03;;;;;;;3.13;2.83;;;16.80;99.90;;;;;;5066665;28;20251;-68
2023/07/27 00:17:29;;;;;;;3.47;3.10;;;16.80;99.90;;;;;;5065724;28;20173;-68
2023/07/27 00:19:54;;;;;;;3.70;3.40;;;16.70;99.90;;;;;;5063341;28;20179;-68
2023/07/27 00:22:20;;;;;;;4.03;3.63;;;16.70;99.90;;;;;;5075080;22;20223;-68
2023/07/27 00:24:46;;;;;;;3.50;2.87;;;16.70;99.90;;;;;;5065806;28;20200;-68
2023/07/27 00:27:11;;;;;;;5.77;3.33;;;16.80;99.90;;;;;;5068006;28;20596;-68
2023/07/27 00:29:37;;;;;;;3.80;3.20;;;16.90;99.90;;;;;;5064244;28;20207;-68
2023/07/27 00:32:03;;;;;;;4.33;2.63;;;16.90;99.90;;;;;;5055171;28;20209;-68
2023/07/27 00:34:28;;;;;;;2.63;2.43;;;16.90;99.90;;;;;;5045753;28;20178;-68
2023/07/27 00:36:54;;;;;;;3.07;2.83;;;17.00;99.90;;;;;;5047354;28;20270;-68
2023/07/27 00:39:20;;;;;;;3.50;3.20;;;17.00;99.90;;;;;;5046885;28;20170;-68
2023/07/27 00:41:45;;;;;;;4.40;3.13;;;17.00;99.90;;;;;;5049070;28;20193;-69
2023/07/27 00:44:11;;;;;;;3.77;2.90;;;16.90;99.90;;;;;;5044731;28;20459;-68
2023/07/27 00:46:37;;;;;;;4.13;3.43;;;16.80;99.90;;;;;;5046223;28;20171;-69
2023/07/27 00:49:07;;;;;;;3.43;3.07;;;16.80;99.90;;;;;;5047471;28;20169;-69
2023/07/27 00:51:38;;;;;;;4.30;3.10;;;16.70;99.90;;;;;;5049435;28;20840;-69
2023/07/27 00:54:06;;;;;;;5.87;3.03;;;16.70;99.90;;;;;;5044772;28;20903;-69
2023/07/27 00:56:32;;;;;;;3.47;3.07;;;16.80;99.90;;;;;;5046585;28;20413;-69
2023/07/27 00:59:01;;;;;;;3.10;2.90;;;16.80;99.90;;;;;;5046553;28;20404;-69
2023/07/27 01:01:27;;;;;;;3.10;2.80;;;16.80;99.90;;;;;;5044826;28;20784;-69
2023/07/27 01:03:54;;;;;;;3.27;2.80;;;16.70;99.90;;;;;;5044628;28;20445;-69
2023/07/27 01:06:19;;;;;;;3.87;3.30;;;16.50;99.90;;;;;;5046078;28;20194;-68
2023/07/27 01:08:45;;;;;;;3.80;3.23;;;16.50;99.90;;;;;;5046843;28;20403;-69
2023/07/27 01:11:36;;;;;;;3.30;2.83;;;16.50;99.90;;;;;;5044659;28;20187;-69
2023/07/27 01:14:27;;;;;;;4.63;3.10;;;16.40;99.90;;;;;;5041739;28;20169;-69
2023/07/27 01:17:10;;;;;;;3.17;2.87;;;16.40;99.90;;;;;;5044384;28;20957;-69
2023/07/27 01:20:04;;;;;;;3.87;3.30;;;16.50;99.90;;;;;;5044764;28;20823;-69
2023/07/27 01:22:32;;;;;;;3.13;2.73;;;16.50;99.90;;;;;;5038608;28;20462;-69
2023/07/27 01:25:07;;;;;;;3.03;2.83;;;16.60;99.90;;;;;;5044984;28;20440;-69
2023/07/27 01:27:41;;;;;;;3.10;2.80;;;16.50;99.90;;;;;;5046133;28;20407;-69
2023/07/27 01:30:53;;;;;;;2.67;2.40;;;16.50;99.90;;;;;;5045061;28;20391;-69
2023/07/27 01:33:28;;;;;;;3.00;2.70;;;16.40;99.90;;;;;;5025280;28;20916;-69
2023/07/27 01:36:06;;;;;;;2.97;2.73;;;16.50;99.90;;;;;;5024039;28;20792;-69
2023/07/27 01:38:34;;;;;;;3.47;3.07;;;16.60;99.90;;;;;;5036981;28;20417;-69
2023/07/27 01:41:01;;;;;;;2.93;2.70;;;16.50;99.90;;;;;;5045645;28;20791;-69
2023/07/27 01:43:28;;;;;;;3.50;2.80;;;16.50;99.90;;;;;;5045397;28;20846;-69
2023/07/27 01:45:56;;;;;;;2.73;2.53;;;16.40;99.90;;;;;;5046419;28;20416;-69
2023/07/27 01:48:25;;;;;;;3.43;3.07;;;16.40;99.90;;;;;;5044291;28;20771;-69
2023/07/27 01:50:52;;;;;;;3.20;2.40;;;16.40;99.90;;;;;;5046956;28;20439;-69
2023/07/27 01:53:19;;;;;;;3.50;3.20;;;16.40;99.90;;;;;;5046010;28;20437;-69
2023/07/27 01:55:46;;;;;;;3.47;2.67;;;16.30;99.90;;;;;;5043575;28;20494;-69
2023/07/27 01:58:16;;;;;;;3.70;3.03;;;16.20;99.90;;;;;;5046199;28;20412;-69
2023/07/27 02:00:42;;;;;;;3.83;3.00;;;16.30;99.90;;;;;;5044536;28;20407;-69
2023/07/27 02:03:10;;;;;;;3.30;3.00;;;16.30;99.90;;;;;;5047437;28;20424;-69
2023/07/27 02:05:35;;;;;;;5.57;3.37;;;16.20;99.90;;;;;;5043170;28;20981;-69
2023/07/27 02:08:01;;;;;;;5.97;3.17;;;16.10;99.90;;;;;;5045465;28;20399;-69
2023/07/27 02:10:30;;;;;;;2.47;2.27;;;16.10;99.90;;;;;;5044897;28;20248;-69
2023/07/27 02:13:05;;;;;;;4.70;3.03;;;16.20;99.90;;;;;;5044968;28;20199;-69
2023/07/27 02:15:39;;;;;;;3.20;2.80;;;16.00;99.90;;;;;;5043617;28;20397;-69
2023/07/27 02:18:14;;;;;;;3.47;2.57;;;16.00;99.90;;;;;;5045949;28;20396;-69
2023/07/27 02:20:41;;;;;;;3.17;2.83;;;16.00;99.90;;;;;;5047241;28;20465;-69
2023/07/27 02:23:07;;;;;;;3.13;2.83;;;16.10;99.90;;;;;;5043034;28;20410;-69
2023/07/27 02:25:33;;;;;;;3.30;2.67;;;16.10;99.90;;;;;;5044871;28;20394;-68
2023/07/27 02:27:59;;;;;;;3.20;2.90;;;16.10;99.90;;;;;;5044548;28;20172;-69
2023/07/27 02:30:24;;;;;;;3.47;2.73;;;16.10;99.90;;;;;;5043213;28;20416;-69
2023/07/27 02:32:50;;;;;;;3.60;3.20;;;16.20;99.90;;;;;;5042839;28;20729;-68
2023/07/27 02:35:15;;;;;;;3.50;3.10;;;16.20;99.90;;;;;;5043336;28;20183;-69
2023/07/27 02:37:41;;;;;;;2.80;2.60;;;16.20;99.90;;;;;;5045582;28;20173;-72
2023/07/27 02:40:07;;;;;;;2.80;2.50;;;16.30;99.90;;;;;;5043045;28;20248;-69
2023/07/27 02:42:32;;;;;;;3.70;3.20;;;16.20;99.90;;;;;;5044110;28;20555;-69
2023/07/27 02:44:58;;;;;;;3.30;3.00;;;16.10;99.90;;;;;;5042302;28;20448;-69
2023/07/27 02:47:24;;;;;;;2.90;2.60;;;16.20;99.90;;;;;;5045479;28;20169;-69
2023/07/27 02:49:49;;;;;;;2.87;2.50;;;16.20;99.90;;;;;;5044244;28;20165;-69
2023/07/27 02:52:15;;;;;;;2.93;2.57;;;16.30;99.90;;;;;;5045975;28;20198;-69
2023/07/27 02:54:40;;;;;;;3.00;2.70;;;16.20;99.90;;;;;;5042764;28;20174;-69
2023/07/27 02:57:06;;;;;;;3.20;2.90;;;16.30;99.90;;;;;;5048001;28;20171;-69
2023/07/27 02:59:31;;;;;;;3.63;2.33;;;16.20;99.90;;;;;;5045230;28;20180;-69
2023/07/27 03:01:57;;;;;;;2.97;2.60;;;16.20;99.90;;;;;;5045225;28;20243;-68
2023/07/27 03:04:22;;;;;;;4.97;2.90;;;16.20;99.90;;;;;;5043357;28;20192;-68
2023/07/27 03:06:48;;;;;;;3.03;2.73;;;16.20;99.90;;;;;;5042770;28;20659;-69
2023/07/27 03:09:14;;;;;;;3.40;2.83;;;16.20;99.90;;;;;;5045055;28;20164;-68
2023/07/27 03:11:40;;;;;;;2.77;2.47;;;16.20;99.90;;;;;;5039253;28;20188;-69
2023/07/27 03:14:05;;;;;;;3.33;3.03;;;16.30;99.90;;;;;;5044186;28;20227;-69
2023/07/27 03:16:31;;;;;;;2.40;2.20;;;16.40;99.90;;;;;;5042277;28;20173;-69
2023/07/27 03:18:57;;;;;;;2.87;2.67;;;16.30;99.90;;;;;;5045074;28;20171;-68
2023/07/27 03:21:23;;;;;;;3.20;2.90;;;16.40;99.90;;;;;;5044622;28;20469;-69
2023/07/27 03:23:49;;;;;;;2.97;2.77;;;16.40;99.90;;;;;;5044179;28;20190;-69
2023/07/27 03:26:15;;;;;;;4.70;2.70;;;16.50;99.90;;;;;;5042321;28;20184;-69
2023/07/27 03:28:41;;;;;;;3.13;2.83;;;16.50;99.90;;;;;;5043561;28;20407;-69
2023/07/27 03:31:24;;;;;;;2.47;2.27;;;16.50;99.90;;;;;;5044430;28;20436;-70
2023/07/27 03:33:50;;;;;;;3.13;2.70;;;16.50;99.90;;;;;;5042722;28;20386;-70
2023/07/27 03:36:17;;;;;;;3.87;2.50;;;16.50;99.90;;;;;;5041728;28;20408;-69
2023/07/27 03:38:43;;;;;;;3.30;2.67;;;16.50;99.90;;;;;;5045610;28;20460;-70
2023/07/27 03:41:09;;;;;;;3.70;2.40;;;16.60;99.90;;;;;;5043063;28;20511;-70
2023/07/27 03:43:34;;;;;;;2.10;1.90;;;16.70;99.90;;;;;;5043722;28;20945;-70
2023/07/27 03:46:00;;;;;;;2.40;2.20;;;16.60;99.90;;;;;;5041971;28;20168;-70
2023/07/27 03:48:26;;;;;;;2.87;2.57;;;16.60;99.90;;;;;;5043854;28;20174;-69
2023/07/27 03:50:52;;;;;;;2.53;2.33;;;16.60;99.90;;;;;;5044795;28;20279;-69
2023/07/27 03:53:18;;;;;;;3.33;2.77;;;16.60;99.90;;;;;;5040813;28;20183;-69
2023/07/27 03:55:44;;;;;;;3.10;2.33;;;16.60;99.90;;;;;;5044255;28;20422;-69
2023/07/27 03:58:10;;;;;;;2.77;2.30;;;16.70;99.90;;;;;;5042808;28;20923;-68
2023/07/27 04:00:35;;;;;;;2.30;2.10;;;16.80;99.90;;;;;;5041238;28;20415;-69
2023/07/27 04:03:01;;;;;;;3.40;2.87;;;16.80;99.90;;;;;;5041815;28;20247;-69
2023/07/27 04:05:26;;;;;;;2.67;2.47;;;16.80;99.90;;;;;;5043150;28;20174;-69
2023/07/27 04:07:52;;;;;;;4.03;3.27;;;16.70;99.90;;;;;;5043161;28;20250;-69
2023/07/27 04:10:18;;;;;;;3.53;2.97;;;16.70;99.90;;;;;;5041113;28;20165;-68
2023/07/27 04:12:44;;;;;;;3.47;2.30;;;16.70;99.90;;;;;;5043601;28;20232;-68
2023/07/27 04:15:10;;;;;;;2.70;2.50;;;16.60;99.90;;;;;;5042017;28;20404;-69
2023/07/27 04:17:35;;;;;;;4.90;2.83;;;16.70;99.90;;;;;;5044337;28;20232;-69
2023/07/27 04:20:01;;;;;;;2.60;2.40;;;16.60;99.90;;;;;;5042224;28;20406;-68
2023/07/27 04:22:27;;;;;;;4.00;2.80;;;16.50;99.90;;;;;;5042284;28;20210;-69
2023/07/27 04:24:52;;;;;;;2.53;2.33;;;16.60;99.90;;;;;;5043240;28;20211;-68
2023/07/27 04:27:18;;;;;;;2.73;2.40;;;16.70;99.90;;;;;;5043899;28;20188;-69
2023/07/27 04:29:43;;;;;;;5.53;2.37;;;16.60;99.90;;;;;;5042450;28;20182;-69
2023/07/27 04:32:09;;;;;;;2.90;2.70;;;16.60;99.90;;;;;;5040762;28;20187;-68
2023/07/27 04:34:34;;;;;;;3.80;2.73;;;16.60;99.90;;;;;;5041167;28;20169;-68
2023/07/27 04:37:00;;;;;;;3.47;2.57;;;16.60;99.90;;;;;;5040857;28;20207;-68
2023/07/27 04:39:26;;;;;;;4.60;2.20;;;16.50;99.90;;;;;;5041359;28;20254;-69
2023/07/27 04:41:51;;;;;;;2.97;2.67;;;16.40;99.90;;;;;;5043481;28;20229;-68
2023/07/27 04:44:17;;;;;;;2.50;2.30;;;16.50;99.90;;;;;;5041591;28;20196;-68
2023/07/27 04:46:43;;;;;;;2.80;2.60;;;16.60;99.90;;;;;;5043372;28;20169;-68
2023/07/27 04:49:08;;;;;;;4.27;2.63;;;16.60;99.90;;;;;;5041323;28;20172;-69
2023/07/27 04:51:34;;;;;;;2.67;2.43;;;16.60;99.90;;;;;;5044348;28;20204;-68
2023/07/27 04:54:01;;;;;;;3.27;3.07;;;16.60;99.90;;;;;;5041735;28;20215;-68
2023/07/27 04:56:26;;;;;;;3.20;2.80;;;16.60;99.90;;;;;;5041064;28;20172;-69
2023/07/27 04:58:52;;;;;;;2.73;2.30;;;16.70;99.90;;;;;;5041680;28;20488;-69
2023/07/27 05:01:17;;;;;;;3.43;3.10;;;16.70;99.90;;;;;;5042526;28;20225;-69
2023/07/27 05:03:43;;;;;;;8.27;2.93;;;16.80;99.90;;;;;;5042716;28;20652;-68
2023/07/27 05:06:08;;;;;;;2.60;2.40;;;16.80;99.90;;;;;;5044503;28;20172;-68
2023/07/27 05:08:34;;;;;;;2.70;2.50;;;16.70;99.90;;;;;;5041968;28;20200;-68
2023/07/27 05:11:02;;;;;;;3.40;2.50;;;16.70;99.90;;;;;;5047045;28;20684;-68
2023/07/27 05:13:28;;;;;;;3.30;3.00;;;16.70;99.90;;;;;;5046271;28;20188;-69
2023/07/27 05:15:53;;;;;;;3.27;2.50;;;16.60;99.90;;;;;;5045035;28;20408;-68
2023/07/27 05:18:19;;;;;;;5.30;2.43;;;16.70;99.90;;;;;;5045290;28;20176;-68
2023/07/27 05:20:44;;;;;;;5.70;2.87;;;16.70;99.90;;;;;;5046664;28;20173;-67
2023/07/27 05:23:10;;;;;;;2.23;2.03;;;16.80;99.90;;;;;;5044467;28;20202;-68
2023/07/27 05:25:35;;;;;;;3.60;2.70;;;17.00;99.90;;;;;;5044835;28;20169;-67
2023/07/27 05:28:02;;;;;;;3.60;2.40;;;17.20;99.90;;;;;;5045695;28;20666;-67
2023/07/27 05:30:28;;;;;;;1.93;1.73;;;17.40;99.90;;;;;;5044407;28;20547;-68
2023/07/27 05:32:53;;;;;;;4.23;2.43;;;17.50;99.90;;;;;;5046705;28;20402;-67
2023/07/27 05:35:19;;;;;;;4.00;2.53;;;17.70;99.90;;;;;;5046791;28;20216;-68
2023/07/27 05:37:46;;;;;;;3.20;2.40;;;17.60;99.90;;;;;;5043213;28;20176;-68
2023/07/27 05:40:15;;;;;;;2.80;2.50;;;17.70;99.90;;;;;;5044168;28;20175;-68
2023/07/27 05:42:42;;;;;;;2.77;2.37;;;17.90;99.90;;;;;;5042299;28;20453;-68
2023/07/27 05:45:08;;;;;;;2.57;2.33;;;17.90;99.90;;;;;;5046567;28;20510;-69
2023/07/27 05:47:34;;;;;;;3.40;3.10;;;18.00;99.90;;;;;;5044080;28;20486;-69
2023/07/27 05:49:59;;;;;;;4.00;2.40;;;18.20;99.90;;;;;;5045003;28;20395;-69
2023/07/27 05:52:26;;;;;;;2.97;2.67;;;18.30;99.90;;;;;;5042604;28;20194;-70
2023/07/27 05:54:51;;;;;;;3.00;2.70;;;18.20;99.90;;;;;;5046577;28;20668;-70
2023/07/27 05:57:17;;;;;;;2.60;2.40;;;18.10;99.90;;;;;;5044864;28;20413;-69
2023/07/27 05:59:42;;;;;;;2.33;2.13;;;18.20;99.90;;;;;;5043852;28;20662;-69
2023/07/27 06:02:08;;;;;;;5.40;2.77;;;18.20;99.90;;;;;;5044512;28;20213;-69
2023/07/27 06:04:33;;;;;;;3.33;2.57;;;18.30;99.90;;;;;;5045268;28;20210;-68
2023/07/27 06:06:59;;;;;;;3.20;2.13;;;18.10;99.90;;;;;;5044922;28;20190;-69
2023/07/27 06:09:25;;;;;;;2.67;2.33;;;18.30;99.90;;;;;;5043342;28;20628;-68
2023/07/27 06:11:51;;;;;;;3.63;2.43;;;18.40;99.90;;;;;;5045346;28;20187;-69
2023/07/27 06:14:17;;;;;;;5.07;2.40;;;18.50;99.90;;;;;;5045017;28;20179;-69
2023/07/27 06:16:42;;;;;;;2.33;1.90;;;18.10;99.90;;;;;;5046082;28;20479;-68
2023/07/27 06:19:08;;;;;;;2.80;2.23;;;18.30;99.90;;;;;;5041983;28;20255;-69
2023/07/27 06:21:34;;;;;;;2.40;2.13;;;18.50;99.90;;;;;;5072406;22;20612;-69
2023/07/27 06:23:59;;;;;;;2.80;2.20;;;18.60;99.90;;;;;;5062801;28;20186;-69
2023/07/27 06:26:25;;;;;;;2.80;2.60;;;18.60;99.90;;;;;;5062752;28;20166;-67
2023/07/27 06:28:50;;;;;;;2.23;2.00;;;18.70;99.90;;;;;;5064112;28;20170;-68
2023/07/27 06:31:16;;;;;;;4.00;2.87;;;18.80;99.90;;;;;;5064951;28;20162;-68
2023/07/27 06:33:42;;;;;;;3.40;2.60;;;19.00;99.90;;;;;;5063280;28;20162;-68
2023/07/27 06:36:08;;;;;;;4.97;2.97;;;19.00;99.90;;;;;;5063932;28;20685;-65
2023/07/27 06:38:33;;;;;;;4.97;2.93;;;19.10;99.90;;;;;;5062738;28;20194;-67
2023/07/27 06:40:59;;;;;;;3.70;2.87;;;19.00;99.90;;;;;;5064299;28;20643;-69
2023/07/27 06:43:24;;;;;;;3.40;2.70;;;18.80;99.90;;;;;;5064064;28;20936;-68
2023/07/27 06:45:50;;;;;;;2.03;1.93;;;19.30;99.90;;;;;;5067112;28;20166;-69
2023/07/27 06:48:16;;;;;;;2.80;2.23;;;19.40;99.90;;;;;;5059150;28;20163;-68
2023/07/27 06:50:42;;;;;;;2.97;2.23;;;19.50;99.90;;;;;;5064743;28;20441;-70
2023/07/27 06:53:07;;;;;;;3.37;2.33;;;19.50;99.90;;;;;;5061286;28;20186;-69
2023/07/27 06:55:33;;;;;;;2.43;2.20;;;19.40;99.90;;;;;;5069878;28;20217;-70
2023/07/27 06:57:59;;;;;;;3.53;2.17;;;19.30;99.90;;;;;;5062340;28;20180;-71
2023/07/27 07:00:24;;;;;;;2.87;2.57;;;19.30;99.90;;;;;;5059485;28;20537;-71
2023/07/27 07:02:50;;;;;;;2.80;2.60;;;19.30;99.90;;;;;;5066302;28;20569;-70
2023/07/27 07:05:16;;;;;;;3.67;2.37;;;19.40;99.90;;;;;;5060055;28;20517;-69
2023/07/27 07:07:43;;;;;;;3.70;2.40;;;19.40;99.90;;;;;;5066401;28;20162;-69
2023/07/27 07:10:09;;;;;;;3.90;2.67;;;19.30;99.90;;;;;;5062845;28;20158;-70
2023/07/27 07:12:34;;;;;;;3.30;2.60;;;19.50;99.90;;;;;;5063109;28;20417;-75
2023/07/27 07:15:02;;;;;;;3.00;2.10;;;19.40;99.90;;;;;;5064394;28;20645;-71
2023/07/27 07:17:27;;;;;;;4.03;2.80;;;19.50;99.90;;;;;;5063304;28;20166;-71
2023/07/27 07:19:53;;;;;;;4.80;2.90;;;19.50;99.90;;;;;;5062119;28;20416;-71
2023/07/27 07:22:19;;;;;;;2.47;2.17;;;19.60;99.90;;;;;;5056021;28;20205;-72
2023/07/27 07:24:44;;;;;;;3.67;2.80;;;19.70;99.90;;;;;;5062912;28;20190;-74
2023/07/27 07:27:10;;;;;;;2.63;2.37;;;19.80;99.90;;;;;;5061870;28;20179;-70
2023/07/27 07:29:35;;;;;;;4.03;2.13;;;19.90;99.90;;;;;;5060237;28;20163;-68
2023/07/27 07:32:01;;;;;;;3.67;2.83;;;19.90;99.90;;;;;;5064627;28;20697;-69
2023/07/27 07:34:27;;;;;;;3.63;2.40;;;19.70;99.90;;;;;;5061919;28;20167;-71
2023/07/27 07:36:52;;;;;;;3.40;2.60;;;19.80;99.90;;;;;;5064370;28;20166;-72
2023/07/27 07:39:18;;;;;;;2.50;2.30;;;19.60;99.90;;;;;;5061184;28;20253;-70
2023/07/27 07:41:43;;;;;;;3.40;3.10;;;19.60;99.90;;;;;;5063682;28;20696;-70
2023/07/27 07:44:09;;;;;;;7.17;2.70;;;19.50;99.90;;;;;;5060299;28;20198;-69
2023/07/27 07:46:34;;;;;;;3.77;2.73;;;19.50;99.90;;;;;;5061641;28;20173;-69
2023/07/27 07:49:00;;;;;;;3.00;2.47;;;19.60;99.90;;;;;;5062750;28;20249;-69
2023/07/27 07:51:26;;;;;;;2.73;2.20;;;19.40;99.90;;;;;;5060033;28;20236;-68
2023/07/27 07:53:51;;;;;;;5.67;2.90;;;19.40;99.90;;;;;;5063814;28;20190;-69
2023/07/27 07:56:17;;;;;;;4.07;2.30;;;19.50;99.90;;;;;;5061312;28;20174;-70
2023/07/27 07:58:46;;;;;;;3.33;2.50;;;19.60;99.90;;;;;;5060374;28;20261;-69
2023/07/27 08:01:13;;;;;;;2.83;2.60;;;19.70;99.90;;;;;;5057791;28;20194;-70
2023/07/27 08:03:38;;;;;;;3.97;2.50;;;19.60;99.90;;;;;;5062282;28;20455;-70
2023/07/27 08:06:06;;;;;;;12.70;2.50;;;19.50;99.90;;;;;;5060680;28;20413;-75
2023/07/27 08:08:33;;;;;;;5.40;2.50;;;19.30;99.90;;;;;;5063588;28;20162;-74
2023/07/27 08:11:02;;;;;;;4.27;2.80;;;19.30;99.90;;;;;;5060933;28;20405;-72
2023/07/27 08:13:29;;;;;;;2.87;2.57;;;19.50;99.90;;;;;;5062270;28;20401;-70
2023/07/27 08:15:54;;;;;;;3.47;2.70;;;19.50;99.90;;;;;;5063493;28;20987;-70
2023/07/27 08:18:20;;;;;;;3.43;1.90;;;19.70;99.90;;;;;;5061106;28;20410;-70
2023/07/27 08:20:57;;;;;;;3.53;2.53;;;20.00;99.90;;;;;;5063249;28;20175;-68
2023/07/27 08:23:22;;;;;;;2.33;2.10;;;20.20;99.90;;;;;;5059234;28;20243;-69
2023/07/27 08:25:48;;;;;;;4.00;2.30;;;20.20;99.90;;;;;;5058120;28;20406;-69
2023/07/27 08:28:14;;;;;;;4.83;2.43;;;20.10;99.90;;;;;;5057930;28;20239;-69
2023/07/27 08:30:41;;;;;;;3.13;2.10;;;20.20;99.90;;;;;;5063677;28;20683;-70
2023/07/27 08:33:08;;;;;;;2.70;2.33;;;20.00;99.90;;;;;;5060746;28;20217;-72
2023/07/27 08:35:33;;;;;;;2.60;2.20;;;20.10;99.90;;;;;;5063229;28;20767;-67
2023/07/27 08:37:59;;;;;;;3.70;2.40;;;20.00;99.90;;;;;;5060248;28;20448;-68
2023/07/27 08:40:24;;;;;;;4.10;2.77;;;20.20;99.90;;;;;;5063145;28;20201;-69
2023/07/27 08:42:50;;;;;;;3.33;2.00;;;20.30;99.90;;;;;;5064010;28;20190;-68
2023/07/27 08:45:21;;;;;;;2.77;2.30;;;20.40;99.90;;;;;;5064982;28;20186;-68
2023/07/27 08:47:48;;;;;;;2.47;2.27;;;20.30;99.90;;;;;;5061125;28;20394;-69
2023/07/27 08:50:15;;;;;;;2.47;2.13;;;20.10;99.90;;;;;;5066561;28;20495;-69
2023/07/27 08:52:41;;;;;;;2.93;2.47;;;20.10;99.90;;;;;;5066294;28;20988;-69
2023/07/27 08:55:07;;;;;;;2.77;2.13;;;20.20;99.90;;;;;;5069639;28;20519;-69
2023/07/27 08:57:32;;;;;;;3.50;2.20;;;20.10;99.90;;;;;;5060341;28;20425;-70
2023/07/27 08:59:58;;;;;;;2.90;2.37;;;20.10;99.90;;;;;;5065392;28;20401;-73
2023/07/27 09:02:24;;;;;;;3.50;2.40;;;20.10;99.90;;;;;;5065754;28;20195;-72
2023/07/27 09:04:49;;;;;;;4.23;2.30;;;20.00;99.90;;;;;;5060038;28;20703;-70
2023/07/27 09:07:15;;;;;;;4.80;2.27;;;20.00;99.90;;;;;;5047107;28;20175;-69
2023/07/27 09:09:41;;;;;;;5.07;2.13;;;20.10;99.90;;;;;;5057811;28;20209;-70
2023/07/27 09:12:07;;;;;;;3.53;2.27;;;20.20;99.90;;;;;;5032877;28;20214;-70
2023/07/27 09:14:37;;;;;;;3.73;2.37;;;20.10;99.90;;;;;;5033478;28;20547;-71
2023/07/27 09:17:04;;;;;;;4.40;2.43;;;20.30;99.90;;;;;;5037011;28;20438;-70
2023/07/27 09:19:37;;;;;;;5.07;2.40;;;20.40;99.90;;;;;;5030653;28;20422;-71
2023/07/27 09:22:03;;;;;;;3.37;2.30;;;20.40;99.90;;;;;;5030809;28;20991;-70
2023/07/27 09:24:32;;;;;;;3.60;2.40;;;20.30;99.90;;;;;;5031201;28;20476;-70
2023/07/27 09:27:00;;;;;;;3.50;2.53;;;20.40;99.90;;;;;;5031814;28;20464;-77
2023/07/27 09:29:27;;;;;;;3.63;2.20;;;20.30;99.90;;;;;;5035647;28;20442;-72
2023/07/27 09:31:57;;;;;;;2.80;2.30;;;20.10;99.90;;;;;;5033304;28;20434;-71
2023/07/27 09:34:24;;;;;;;3.87;2.53;;;20.20;99.90;;;;;;5035649;28;20424;-71
2023/07/27 09:36:50;;;;;;;5.17;2.70;;;20.10;99.90;;;;;;5035532;28;20897;-70
2023/07/27 09:39:15;;;;;;;5.27;2.97;;;20.10;99.90;;;;;;5032925;28;20425;-69
2023/07/27 09:41:46;;;;;;;2.60;2.20;;;20.30;99.90;;;;;;5048763;28;20196;-72
2023/07/27 09:44:18;;;;;;;4.57;2.73;;;20.50;99.90;;;;;;5059349;28;20256;-70
2023/07/27 09:46:45;;;;;;;4.60;2.83;;;20.50;99.90;;;;;;5061410;28;20409;-70
2023/07/27 09:49:12;;;;;;;5.50;2.50;;;20.40;99.90;;;;;;5064969;28;20393;-71
2023/07/27 09:51:38;;;;;;;2.70;2.40;;;20.30;99.90;;;;;;5060652;28;20785;-70
2023/07/27 09:54:04;;;;;;;3.47;2.40;;;20.40;99.90;;;;;;5062870;28;20795;-74
2023/07/27 09:56:31;;;;;;;4.17;2.70;;;20.30;99.90;;;;;;5065638;28;20819;-70
2023/07/27 09:58:58;;;;;;;5.20;3.20;;;20.50;99.90;;;;;;5065379;28;20393;-71
2023/07/27 10:01:24;;;;;;;4.63;3.10;;;20.60;99.90;;;;;;5063412;28;20425;-72
2023/07/27 10:03:50;;;;;;;4.60;2.77;;;20.60;99.90;;;;;;5065095;28;20447;-71
2023/07/27 10:06:17;;;;;;;3.63;2.73;;;20.70;99.90;;;;;;5064431;28;20398;-72
2023/07/27 10:08:45;;;;;;;3.93;2.50;;;20.60;99.90;;;;;;5065091;28;20233;-71
2023/07/27 10:11:10;;;;;;;5.10;2.97;;;20.60;99.90;;;;;;5063017;28;20424;-70
2023/07/27 10:13:43;;;;;;;4.40;2.77;;;20.50;99.90;;;;;;5065012;28;20876;-69
2023/07/27 10:16:11;;;;;;;2.80;2.50;;;20.60;99.90;;;;;;5063763;28;20703;-69
2023/07/27 10:18:42;;;;;;;4.07;3.10;;;20.40;99.90;;;;;;5063810;28;20403;-70
2023/07/27 10:21:21;;;;;;;6.00;2.10;;;20.30;99.90;;;;;;5064762;28;20920;-71
2023/07/27 10:24:01;;;;;;;5.13;2.33;;;20.40;99.90;;;;;;5059957;28;20569;-69
2023/07/27 10:26:52;;;;;;;5.67;2.53;;;20.50;99.90;;;;;;5064418;28;20381;-69
2023/07/27 10:29:22;;;;;;;3.60;2.60;;;20.60;99.90;;;;;;5059138;28;20458;-69
2023/07/27 10:32:05;;;;;;;8.70;2.50;;;20.60;99.90;;;;;;5060722;28;20444;-68
2023/07/27 10:34:33;;;;;;;3.10;2.80;;;20.60;99.90;;;;;;5059610;28;20489;-69
2023/07/27 10:37:13;;;;;;;2.90;2.23;;;21.00;99.90;;;;;;5059694;28;20404;-68
2023/07/27 10:39:50;;;;;;;2.73;2.40;;;21.20;99.90;;;;;;5059030;28;20393;-69
2023/07/27 10:42:19;;;;;;;4.63;2.30;;;21.20;99.90;;;;;;5062202;28;20422;-69
2023/07/27 10:44:55;;;;;;;5.43;3.07;;;21.40;99.90;;;;;;5051282;28;20496;-69
2023/07/27 10:47:37;;;;;;;3.77;2.30;;;21.80;99.90;;;;;;5058346;28;20756;-70
2023/07/27 10:50:03;;;;;;;2.60;2.30;;;21.80;99.90;;;;;;5059107;28;20708;-69
2023/07/27 10:52:34;;;;;;;3.37;2.53;;;21.90;99.90;;;;;;5062455;28;20527;-71
2023/07/27 10:55:03;;;;;;;6.27;2.30;;;22.00;99.90;;;;;;5066988;28;20949;-69
2023/07/27 10:57:30;;;;;;;7.20;2.40;;;22.20;99.90;;;;;;5063086;28;20851;-69
2023/07/27 10:59:56;;;;;;;3.40;2.47;;;22.10;99.90;;;;;;5064331;28;20401;-73
2023/07/27 11:02:28;;;;;;;3.37;2.27;;;21.90;99.90;;;;;;5061409;28;20439;-75
2023/07/27 11:04:58;;;;;;;4.17;2.77;;;22.10;99.90;;;;;;5060423;28;20482;-74
2023/07/27 11:07:30;;;;;;;3.13;2.10;;;22.10;99.90;;;;;;5063431;28;20401;-70
2023/07/27 11:09:57;;;;;;;3.57;2.47;;;21.80;99.90;;;;;;5064860;28;20381;-70
2023/07/27 11:12:23;;;;;;;3.17;2.20;;;22.20;99.90;;;;;;5060608;28;20417;-71
2023/07/27 11:14:50;;;;;;;2.23;2.03;;;22.40;99.90;;;;;;5065639;28;20420;-70
2023/07/27 11:17:15;;;;;;;5.53;2.50;;;22.50;99.90;;;;;;5064281;28;20409;-68
2023/07/27 11:19:42;;;;;;;2.67;2.47;;;22.70;99.90;;;;;;5060623;28;20402;-70
2023/07/27 11:22:08;;;;;;;2.73;2.43;;;23.00;99.90;;;;;;5061732;28;20639;-70
2023/07/27 11:24:34;;;;;;;2.53;2.20;;;23.00;99.90;;;;;;5063777;28;20551;-73
2023/07/27 11:27:00;;;;;;;2.70;2.23;;;23.00;99.90;;;;;;5063024;28;20180;-70
2023/07/27 11:29:26;;;;;;;5.57;2.57;;;22.80;99.90;;;;;;5061353;28;20405;-72
2023/07/27 11:31:53;;;;;;;3.80;2.33;;;22.70;99.90;;;;;;5063948;28;20664;-74
2023/07/27 11:34:25;;;;;;;3.20;2.30;;;22.70;99.90;;;;;;5063128;28;20441;-69
2023/07/27 11:36:56;;;;;;;3.33;2.23;;;22.60;99.90;;;;;;5062864;28;20483;-68
2023/07/27 11:39:21;;;;;;;5.67;2.60;;;22.50;99.90;;;;;;5061891;28;20405;-68
2023/07/27 11:41:49;;;;;;;2.10;1.90;;;22.60;99.90;;;;;;5064016;28;20432;-68
2023/07/27 11:44:16;;;;;;;5.20;2.20;;;22.50;99.90;;;;;;5063123;28;20451;-68
2023/07/27 11:46:47;;;;;;;3.77;2.30;;;22.50;99.90;;;;;;5062697;28;20513;-70
2023/07/27 11:49:13;;;;;;;3.43;2.40;;;22.50;99.90;;;;;;5061777;28;20798;-70
2023/07/27 11:51:40;;;;;;;2.97;2.33;;;22.60;99.90;;;;;;5060743;28;20427;-67
2023/07/27 11:54:06;;;;;;;4.90;2.30;;;22.70;99.90;;;;;;5061867;28;20404;-69
2023/07/27 11:56:37;;;;;;;5.00;1.97;;;22.70;99.90;;;;;;5062514;28;20398;-68
2023/07/27 11:59:06;;;;;;;3.63;2.10;;;23.00;99.90;;;;;;5063297;28;20196;-69
2023/07/27 12:01:36;;;;;;;2.50;2.30;;;22.90;99.90;;;;;;5061232;28;20419;-69
2023/07/27 12:04:05;;;;;;;2.80;2.60;;;23.00;99.90;;;;;;5061328;28;20444;-69
2023/07/27 12:06:31;;;;;;;2.80;2.40;;;23.30;99.90;;;;;;5061335;28;20491;-72
2023/07/27 12:08:57;;;;;;;3.00;2.43;;;23.20;99.90;;;;;;5061849;28;20765;-70
2023/07/27 12:11:27;;;;;;;3.53;1.97;;;23.20;99.90;;;;;;5063713;28;20416;-72
2023/07/27 12:13:52;;;;;;;2.20;2.00;;;23.10;99.90;;;;;;5056982;28;20594;-70
2023/07/27 12:16:18;;;;;;;3.40;2.20;;;23.30;99.90;;;;;;5063928;28;20563;-70
2023/07/27 12:18:45;;;;;;;3.53;2.60;;;23.10;99.90;;;;;;5066688;28;20168;-70
2023/07/27 12:21:11;;;;;;;3.20;2.67;;;23.40;99.90;;;;;;5059488;28;20178;-68
2023/07/27 12:23:38;;;;;;;2.77;2.50;;;23.30;99.90;;;;;;5066907;28;20505;-69
2023/07/27 12:26:04;;;;;;;3.00;2.00;;;23.20;99.90;;;;;;5066809;28;20851;-68
2023/07/27 12:28:31;;;;;;;4.83;2.30;;;23.30;99.90;;;;;;5065275;28;20554;-69
2023/07/27 12:30:57;;;;;;;3.50;2.13;;;23.20;99.90;;;;;;5067779;28;20400;-69
2023/07/27 12:33:25;;;;;;;2.90;2.50;;;23.20;99.90;;;;;;5066849;28;20502;-70
2023/07/27 12:35:52;;;;;;;2.60;2.40;;;23.10;99.90;;;;;;5063320;28;20512;-69
2023/07/27 12:38:18;;;;;;;2.20;2.00;;;23.10;99.90;;;;;;5067299;28;20750;-70
2023/07/27 12:40:44;;;;;;;3.13;2.70;;;23.00;99.90;;;;;;5064934;28;20454;-70
2023/07/27 12:43:10;;;;;;;2.63;2.43;;;23.00;99.90;;;;;;5065299;28;20776;-69
2023/07/27 12:45:36;;;;;;;4.13;2.70;;;23.00;99.90;;;;;;5067487;28;20197;-71
2023/07/27 12:48:03;;;;;;;4.50;2.37;;;22.90;99.90;;;;;;5065118;28;20914;-70